x

Western Hawaii - 205 Nm Sw Of Honolulu, Hi (51003) Wave Buoy

1:50pm - Sat 25th Mar 2017 All times are HST. -10 hours from GMT.

  • Sig Wave height 7.9ft
  • Swell Direction
  • Peak Period 19s
  • Average Period 8s
  • Wind
    16mph, 20mph gusts
  • Sea Temp 79°f
  • Air Temp 77°f
  • Sea Pressure 1019.5mb
  • Western  Hawaii - 205 Nm Sw Of Honolulu, Hi
  • Western  Hawaii - 205 Nm Sw Of Honolulu, Hi

More Historic Weather Station data

Upgrade to MSW Pro to gain access to the past 30 days of data for over 8000 Wavebouys and Weather Stations around the globe.

Join Pro

Comparision Forecast

View Surf forecast
   
Sat 03/25 1:50pm 8ft 19s 8s 16 20 mph 1019.5mb 79f 77f
12:50pm 9ft 21s 9s 13 16 mph 1020.7mb 79f 77f
11:50am 6.5ft 21s 8s 13 16 mph 1021.4mb 78f 77f
10:50am 6ft 21s 7s 11 13 mph 1021.6mb 78f 77f
9:50am 7ft 21s 8s 13 16 mph 1021.9mb 78f 77f
8:50am 6ft 9s 7s 13 16 mph 1021.8mb 78f 77f
7:50am 6ft 9s 8s 11 13 mph 1021.2mb 78f 77f
6:50am 6ft 9s 7s 11 13 mph 1020.5mb 78f 77f
5:50am 5.5ft 11s 7s 11 13 mph 1020mb 78f 77f
4:50am 5ft 9s 7s 13 16 mph 1019.8mb 78f 77f
3:50am 5.5ft 11s 7s 11 13 mph 1019.8mb 78f 77f
2:50am 5.5ft 11s 7s 11 13 mph 1020.3mb 78f 77f
1:50am 5.5ft 12s 7s 11 16 mph 1021mb 78f 77f
12:50am 6ft 10s 7s 13 18 mph 1021.5mb 78f 77f
Fri 03/24 11:50pm 6ft 12s 7s 11 16 mph 1021.9mb 78f 76f
10:50pm 5.5ft 12s 7s 16 20 mph 1022.1mb 78f 76f
8:50pm 6ft 12s 7s 18 22 mph 1021.1mb 78f 77f
7:50pm 5.5ft 12s 7s 16 18 mph 1020.4mb 78f 78f
6:50pm 6ft 11s 7s 11 16 mph 1019.7mb 79f 77f
5:50pm 5.5ft 11s 7s 13 16 mph 1018.9mb 79f 78f
4:50pm 5ft 11s 7s 13 16 mph 1018.5mb 79f 78f
3:50pm 5.5ft 12s 7s 13 16 mph 1018.7mb 79f 78f
2:50pm 5.5ft 11s 7s 11 16 mph 1018.7mb 79f 78f
1:50pm 5ft 9s 7s 13 16 mph 1019.2mb 79f 78f
12:50pm 5ft 12s 7s 11
mph
1019.5mb 79f 77f
11:50am 5ft 11s 7s 13 16 mph 1020.3mb 78f 77f
10:50am 5ft 11s 7s 9 13 mph 1021mb 78f 77f
9:50am 5ft 13s 7s 13 18 mph 1021.2mb 78f 78f
8:50am 5ft 11s 7s 13 18 mph 1020.7mb 78f 77f
7:50am 5.5ft 12s 7s 16 20 mph 1019.7mb 78f 78f
6:50am 5.5ft 12s 7s 13 18 mph 1019.1mb 78f 77f
5:50am 5ft 12s 7s 11 13 mph 1018.6mb 78f 77f
4:50am 5ft 11s 6s 13 16 mph 1018.3mb 78f 77f
3:50am 5ft 12s 6s 13 18 mph 1018.6mb 78f 77f
2:50am 5.5ft 12s 7s 16 18 mph 1018.7mb 78f 77f
1:50am 5ft 12s 7s 13 16 mph 1019mb 78f 77f
12:50am 5ft 12s 7s 13 16 mph 1019.3mb 78f 77f
Thu 03/23 11:50pm 5ft 12s 7s 16 18 mph 1019.5mb 78f 77f
10:50pm 5ft 13s 6s 13 18 mph 1019.8mb 78f 77f
9:50pm 5ft 13s 6s 13 18 mph 1019.7mb 78f 77f
8:50pm 5ft 13s 6s 16 20 mph 1019mb 78f 77f
7:50pm 5ft 13s 6s 16 20 mph 1018.6mb 78f 77f
6:50pm 5.5ft 13s 7s 16 18 mph 1018mb 78f 78f
5:50pm 5ft 13s 7s 16 18 mph 1017.4mb 78f 78f
4:50pm 5.5ft 13s 7s 13 16 mph 1017mb 78f 77f
3:50pm 5.5ft 14s 7s 13 16 mph 1017mb 78f 77f
2:50pm 5.5ft 14s 6s 13 16 mph 1017.6mb 78f 77f
1:50pm 6ft 14s 6s 13 16 mph 1018.1mb 78f 77f
12:50pm 6ft 14s 7s 13 18 mph 1018.6mb 78f 77f
11:50am 6ft 13s 7s 16 18 mph 1019.6mb 78f 77f
10:50am 6ft 13s 7s 16 18 mph 1020.1mb 78f 77f
9:50am 6.5ft 14s 7s 18 20 mph 1020.4mb 78f 77f
8:50am 6ft 13s 7s 18 20 mph 1020.3mb 78f 77f
7:50am 6ft 14s 7s 16 20 mph 1019.8mb 78f 77f
6:50am 6ft 13s 7s 16 18 mph 1019.3mb 78f 77f
5:50am 6ft 7s 7s 11 16 mph 1018.6mb 78f 77f
4:50am 5.5ft 13s 7s 16 18 mph 1017.8mb 78f 77f
3:50am 6ft 8s 7s 11 13 mph 1017.7mb 78f 77f
2:50am 6ft 8s 7s 13 16 mph 1018mb 78f 77f
1:50am 6.5ft 13s 7s 16 18 mph 1018.6mb 78f 77f
12:50am 7ft 14s 7s 13 18 mph 1019.1mb 78f 77f
Wed 03/22 11:50pm 7ft 8s 7s 16 18 mph 1019.4mb 78f 77f
10:50pm 6.5ft 8s 7s 16 18 mph 1019.7mb 78f 77f
9:50pm 6ft 8s 7s 16 18 mph 1019.5mb 78f 77f
8:50pm 7ft 8s 7s 13 18 mph 1019mb 78f 77f
7:50pm 6.5ft 13s 7s 16 18 mph 1018.4mb 78f 78f
6:50pm 6.5ft 14s 7s 16 18 mph 1017.8mb 78f 77f
5:50pm 7ft 15s 7s 11 16 mph 1017.3mb 78f 78f
4:50pm 7.5ft 14s 7s 13 16 mph 1017mb 78f 78f
3:50pm 7ft 13s 8s 13 18 mph 1017mb 78f 78f
2:50pm 6.5ft 14s 7s 13 18 mph 1017.5mb 78f 77f
1:50pm 7ft 14s 7s 11 16 mph 1018.2mb 78f 77f
12:50pm 7.5ft 15s 7s 11 16 mph 1019mb 78f 77f
11:50am 6.5ft 13s 7s 11 13 mph 1019.8mb 78f 77f
10:50am 7ft 14s 7s 13 16 mph 1020mb 78f 76f
9:50am 6.5ft 14s 7s 16 20 mph 1020mb 78f 77f
8:50am 6.5ft 14s 7s 16 20 mph 1019.6mb 78f 77f
7:50am 6ft 14s 7s 16 18 mph 1019.1mb 78f 76f
6:50am 6ft 14s 7s 16 20 mph 1018.4mb 78f 76f
5:50am 6.5ft 14s 7s 13 16 mph 1018.3mb 78f 76f
4:50am 6.5ft 15s 7s 13 16 mph 1018.1mb 78f 76f
3:50am 6ft 14s 7s 16 18 mph 1018.1mb 78f 76f
2:50am 7ft 14s 7s 13 16 mph 1018.5mb 78f 76f
1:50am 7ft 14s 7s 13 16 mph 1019mb 78f 76f
12:50am 6ft 14s 7s 13 16 mph 1019.6mb 78f 77f